sensor_id;sensor_type;location;lat;lon;timestamp;pressure;altitude;pressure_sealevel;temperature;humidity
58686;BME280;44465;53.206;-6.106;2023-02-11T00:00:07;103425.47;;;20.37;53.08
58686;BME280;44465;53.206;-6.106;2023-02-11T00:02:33;103393.56;;;20.17;53.10
58686;BME280;44465;53.206;-6.106;2023-02-11T00:04:59;103417.38;;;20.43;52.91
58686;BME280;44465;53.206;-6.106;2023-02-11T00:07:28;103417.47;;;20.37;53.08
58686;BME280;44465;53.206;-6.106;2023-02-11T00:09:54;103385.56;;;20.15;53.05
58686;BME280;44465;53.206;-6.106;2023-02-11T00:12:20;103379.34;;;20.13;53.36
58686;BME280;44465;53.206;-6.106;2023-02-11T00:14:46;103416.56;;;20.37;53.17
58686;BME280;44465;53.206;-6.106;2023-02-11T00:17:12;103416.53;;;20.40;53.28
58686;BME280;44465;53.206;-6.106;2023-02-11T00:19:37;103416.56;;;20.34;53.33
58686;BME280;44465;53.206;-6.106;2023-02-11T00:22:03;103418.31;;;20.39;53.21
58686;BME280;44465;53.206;-6.106;2023-02-11T00:24:28;103376.66;;;20.17;53.04
58686;BME280;44465;53.206;-6.106;2023-02-11T00:26:54;103422.75;;;20.40;53.31
58686;BME280;44465;53.206;-6.106;2023-02-11T00:29:20;103413.88;;;20.38;53.46
58686;BME280;44465;53.206;-6.106;2023-02-11T00:31:45;103419.22;;;20.38;53.18
58686;BME280;44465;53.206;-6.106;2023-02-11T00:34:11;103388.19;;;20.19;53.32
58686;BME280;44465;53.206;-6.106;2023-02-11T00:36:37;103363.41;;;20.01;53.12
58686;BME280;44465;53.206;-6.106;2023-02-11T00:39:02;103415.69;;;20.36;53.49
58686;BME280;44465;53.206;-6.106;2023-02-11T00:41:28;103423.69;;;20.35;53.69
58686;BME280;44465;53.206;-6.106;2023-02-11T00:43:54;103426.38;;;20.36;53.49
58686;BME280;44465;53.206;-6.106;2023-02-11T00:46:20;103400.66;;;20.20;53.58
58686;BME280;44465;53.206;-6.106;2023-02-11T00:48:46;103415.72;;;20.30;53.37
58686;BME280;44465;53.206;-6.106;2023-02-11T00:51:11;103380.28;;;20.08;53.42
58686;BME280;44465;53.206;-6.106;2023-02-11T00:53:37;103390.91;;;20.14;53.40
58686;BME280;44465;53.206;-6.106;2023-02-11T00:56:03;103437.09;;;20.36;53.65
58686;BME280;44465;53.206;-6.106;2023-02-11T00:58:29;103437.09;;;20.36;53.40
58686;BME280;44465;53.206;-6.106;2023-02-11T01:00:55;103384.75;;;20.09;53.36
58686;BME280;44465;53.206;-6.106;2023-02-11T01:03:22;103419.34;;;20.26;53.64
58686;BME280;44465;53.206;-6.106;2023-02-11T01:05:48;103436.19;;;20.36;53.43
58686;BME280;44465;53.206;-6.106;2023-02-11T01:08:14;103421.94;;;20.35;53.35
58686;BME280;44465;53.206;-6.106;2023-02-11T01:10:39;103411.31;;;20.27;53.42
58686;BME280;44465;53.206;-6.106;2023-02-11T01:13:05;103425.47;;;20.36;53.40
58686;BME280;44465;53.206;-6.106;2023-02-11T01:15:32;103429.06;;;20.35;53.53
58686;BME280;44465;53.206;-6.106;2023-02-11T01:17:58;103420.22;;;20.29;53.48
58686;BME280;44465;53.206;-6.106;2023-02-11T01:20:25;103430.84;;;20.37;53.47
58686;BME280;44465;53.206;-6.106;2023-02-11T01:22:51;103376.75;;;20.06;53.55
58686;BME280;44465;53.206;-6.106;2023-02-11T01:25:17;103363.41;;;20.03;53.33
58686;BME280;44465;53.206;-6.106;2023-02-11T01:27:42;103395.31;;;20.20;53.30
58686;BME280;44465;53.206;-6.106;2023-02-11T01:30:11;103421.94;;;20.35;53.38
58686;BME280;44465;53.206;-6.106;2023-02-11T01:32:38;103412.13;;;20.34;53.39
58686;BME280;44465;53.206;-6.106;2023-02-11T01:35:04;103409.47;;;20.33;53.51
58686;BME280;44465;53.206;-6.106;2023-02-11T01:37:32;103407.75;;;20.27;53.51
58686;BME280;44465;53.206;-6.106;2023-02-11T01:39:58;103396.16;;;20.28;53.40
58686;BME280;44465;53.206;-6.106;2023-02-11T01:42:23;103391.75;;;20.22;53.76
58686;BME280;44465;53.206;-6.106;2023-02-11T01:44:51;103407.69;;;20.32;53.44
58686;BME280;44465;53.206;-6.106;2023-02-11T01:47:17;103407.72;;;20.28;53.65
58686;BME280;44465;53.206;-6.106;2023-02-11T01:49:49;103405.94;;;20.30;53.65
58686;BME280;44465;53.206;-6.106;2023-02-11T01:52:21;103388.22;;;20.17;53.59
58686;BME280;44465;53.206;-6.106;2023-02-11T01:54:53;103394.38;;;20.27;53.59
58686;BME280;44465;53.206;-6.106;2023-02-11T01:57:42;103401.44;;;20.31;53.50
58686;BME280;44465;53.206;-6.106;2023-02-11T02:00:11;103403.25;;;20.30;53.45
58686;BME280;44465;53.206;-6.106;2023-02-11T02:03:01;103389.88;;;20.29;53.37
58686;BME280;44465;53.206;-6.106;2023-02-11T02:08:46;103381.03;;;20.24;53.56
58686;BME280;44465;53.206;-6.106;2023-02-11T02:11:15;103392.53;;;20.29;53.51
58686;BME280;44465;53.206;-6.106;2023-02-11T02:13:41;103367.75;;;20.14;53.72
58686;BME280;44465;53.206;-6.106;2023-02-11T02:16:11;103389.03;;;20.27;53.40
58686;BME280;44465;53.206;-6.106;2023-02-11T02:30:13;103390.81;;;20.23;53.61
58686;BME280;44465;53.206;-6.106;2023-02-11T02:40:53;103392.69;;;20.18;53.33
58686;BME280;44465;53.206;-6.106;2023-02-11T02:43:22;103383.72;;;20.21;53.63
58686;BME280;44465;53.206;-6.106;2023-02-11T02:45:50;103380.13;;;20.23;53.77
58686;BME280;44465;53.206;-6.106;2023-02-11T02:48:31;103379.16;;;20.30;53.37
58686;BME280;44465;53.206;-6.106;2023-02-11T02:54:28;103379.28;;;20.21;53.27
58686;BME280;44465;53.206;-6.106;2023-02-11T02:57:18;103382.78;;;20.28;53.46
58686;BME280;44465;53.206;-6.106;2023-02-11T03:00:03;103365.81;;;20.27;53.54
58686;BME280;44465;53.206;-6.106;2023-02-11T03:07:53;103364.94;;;20.25;53.35
58686;BME280;44465;53.206;-6.106;2023-02-11T03:10:27;103320.69;;;19.96;53.45
58686;BME280;44465;53.206;-6.106;2023-02-11T03:12:55;103325.06;;;20.05;53.24
58686;BME280;44465;53.206;-6.106;2023-02-11T03:15:22;103360.50;;;20.23;53.67
58686;BME280;44465;53.206;-6.106;2023-02-11T03:17:49;103363.22;;;20.20;53.52
58686;BME280;44465;53.206;-6.106;2023-02-11T03:20:18;103359.63;;;20.21;53.50
58686;BME280;44465;53.206;-6.106;2023-02-11T03:23:00;103328.53;;;20.10;53.41
58686;BME280;44465;53.206;-6.106;2023-02-11T03:25:34;103361.38;;;20.25;53.21
58686;BME280;44465;53.206;-6.106;2023-02-11T03:28:09;103369.38;;;20.29;53.38
58686;BME280;44465;53.206;-6.106;2023-02-11T03:30:52;103365.84;;;20.26;53.25
58686;BME280;44465;53.206;-6.106;2023-02-11T03:33:32;103363.09;;;20.29;53.39
58686;BME280;44465;53.206;-6.106;2023-02-11T03:36:04;103356.00;;;20.26;53.36
58686;BME280;44465;53.206;-6.106;2023-02-11T03:38:35;103327.69;;;20.10;53.45
58686;BME280;44465;53.206;-6.106;2023-02-11T03:41:03;103325.91;;;20.09;53.39
58686;BME280;44465;53.206;-6.106;2023-02-11T03:43:41;103355.09;;;20.29;53.45
58686;BME280;44465;53.206;-6.106;2023-02-11T03:46:08;103336.47;;;20.20;53.21
58686;BME280;44465;53.206;-6.106;2023-02-11T03:48:38;103300.22;;;19.94;53.60
58686;BME280;44465;53.206;-6.106;2023-02-11T03:51:06;103343.59;;;20.22;53.60
58686;BME280;44465;53.206;-6.106;2023-02-11T03:53:34;103340.88;;;20.24;53.48
58686;BME280;44465;53.206;-6.106;2023-02-11T03:56:04;103342.72;;;20.19;53.62
58686;BME280;44465;53.206;-6.106;2023-02-11T03:58:32;103350.69;;;20.25;53.41
58686;BME280;44465;53.206;-6.106;2023-02-11T04:00:57;103356.91;;;20.25;53.35
58686;BME280;44465;53.206;-6.106;2023-02-11T04:03:23;103300.28;;;19.84;53.38
58686;BME280;44465;53.206;-6.106;2023-02-11T04:05:48;103307.38;;;19.90;53.50
58686;BME280;44465;53.206;-6.106;2023-02-11T04:08:14;103365.88;;;20.23;53.32
58686;BME280;44465;53.206;-6.106;2023-02-11T04:10:39;103358.75;;;20.19;53.72
58686;BME280;44465;53.206;-6.106;2023-02-11T04:13:05;103354.38;;;20.14;53.38
58686;BME280;44465;53.206;-6.106;2023-02-11T04:15:31;103368.53;;;20.23;53.41
58686;BME280;44465;53.206;-6.106;2023-02-11T04:17:56;103338.44;;;20.05;53.32
58686;BME280;44465;53.206;-6.106;2023-02-11T04:20:22;103358.75;;;20.19;53.60
58686;BME280;44465;53.206;-6.106;2023-02-11T04:22:47;103337.56;;;20.03;53.51
58686;BME280;44465;53.206;-6.106;2023-02-11T04:25:13;103306.50;;;19.85;53.53
58686;BME280;44465;53.206;-6.106;2023-02-11T04:27:38;103373.88;;;20.24;53.56
58686;BME280;44465;53.206;-6.106;2023-02-11T04:30:05;103358.88;;;20.09;53.39
58686;BME280;44465;53.206;-6.106;2023-02-11T04:32:32;103381.94;;;20.20;53.61
58686;BME280;44465;53.206;-6.106;2023-02-11T04:34:57;103373.06;;;20.18;53.76
58686;BME280;44465;53.206;-6.106;2023-02-11T04:37:23;103370.41;;;20.13;53.83
58686;BME280;44465;53.206;-6.106;2023-02-11T04:39:48;103382.78;;;20.25;53.71
58686;BME280;44465;53.206;-6.106;2023-02-11T04:42:14;103369.47;;;20.19;53.51
58686;BME280;44465;53.206;-6.106;2023-02-11T04:44:39;103327.84;;;19.93;53.49
58686;BME280;44465;53.206;-6.106;2023-02-11T04:47:05;103373.88;;;20.24;53.28
58686;BME280;44465;53.206;-6.106;2023-02-11T04:49:31;103373.88;;;20.24;53.71
58686;BME280;44465;53.206;-6.106;2023-02-11T04:51:56;103365.91;;;20.20;53.57
58686;BME280;44465;53.206;-6.106;2023-02-11T04:54:22;103370.34;;;20.21;53.44
58686;BME280;44465;53.206;-6.106;2023-02-11T04:56:47;103356.13;;;20.17;53.45
58686;BME280;44465;53.206;-6.106;2023-02-11T04:59:14;103345.44;;;20.15;53.52
58686;BME280;44465;53.206;-6.106;2023-02-11T05:01:40;103358.75;;;20.19;53.65
58686;BME280;44465;53.206;-6.106;2023-02-11T05:04:06;103369.47;;;20.20;53.43
58686;BME280;44465;53.206;-6.106;2023-02-11T05:06:31;103369.47;;;20.19;53.73
58686;BME280;44465;53.206;-6.106;2023-02-11T05:08:57;103375.72;;;20.19;53.53
58686;BME280;44465;53.206;-6.106;2023-02-11T05:11:24;103376.59;;;20.20;53.64
58686;BME280;44465;53.206;-6.106;2023-02-11T05:13:50;103371.31;;;20.13;53.62
58686;BME280;44465;53.206;-6.106;2023-02-11T05:16:17;103379.31;;;20.15;53.92
58686;BME280;44465;53.206;-6.106;2023-02-11T05:18:43;103342.97;;;19.97;53.52
58686;BME280;44465;53.206;-6.106;2023-02-11T05:21:12;103373.91;;;20.20;53.56
58686;BME280;44465;53.206;-6.106;2023-02-11T05:23:38;103368.59;;;20.18;53.60
58686;BME280;44465;53.206;-6.106;2023-02-11T05:26:04;103309.22;;;19.80;53.70
58686;BME280;44465;53.206;-6.106;2023-02-11T05:28:31;103388.16;;;20.22;53.57
58686;BME280;44465;53.206;-6.106;2023-02-11T05:30:57;103353.63;;;20.00;53.43
58686;BME280;44465;53.206;-6.106;2023-02-11T05:33:22;103387.34;;;20.17;53.57
58686;BME280;44465;53.206;-6.106;2023-02-11T05:35:48;103386.44;;;20.18;53.83
58686;BME280;44465;53.206;-6.106;2023-02-11T05:38:14;103343.03;;;19.91;53.56
58686;BME280;44465;53.206;-6.106;2023-02-11T05:40:40;103398.91;;;20.20;53.64
58686;BME280;44465;53.206;-6.106;2023-02-11T05:43:05;103398.91;;;20.20;53.57
58686;BME280;44465;53.206;-6.106;2023-02-11T05:45:31;103409.59;;;20.20;53.62
58686;BME280;44465;53.206;-6.106;2023-02-11T05:47:57;103399.84;;;20.18;53.54
58686;BME280;44465;53.206;-6.106;2023-02-11T05:50:22;103345.72;;;19.83;53.60
58686;BME280;44465;53.206;-6.106;2023-02-11T05:52:51;103352.00;;;19.87;53.64
58686;BME280;44465;53.206;-6.106;2023-02-11T05:55:17;103404.28;;;20.17;53.59
58686;BME280;44465;53.206;-6.106;2023-02-11T05:57:42;103397.16;;;20.18;53.35
58686;BME280;44465;53.206;-6.106;2023-02-11T06:00:08;103385.53;;;20.19;53.38
58686;BME280;44465;53.206;-6.106;2023-02-11T06:02:37;103307.47;;;19.76;53.28
58686;BME280;44465;53.206;-6.106;2023-02-11T06:05:03;103371.34;;;20.10;53.43
58686;BME280;44465;53.206;-6.106;2023-02-11T06:07:29;103319.00;;;19.86;53.53
58686;BME280;44465;53.206;-6.106;2023-02-11T06:09:54;103364.31;;;20.03;53.41
58686;BME280;44465;53.206;-6.106;2023-02-11T06:12:20;103382.88;;;20.17;53.26
58686;BME280;44465;53.206;-6.106;2023-02-11T06:14:45;103323.47;;;19.82;53.48
58686;BME280;44465;53.206;-6.106;2023-02-11T06:17:11;103382.00;;;20.17;53.37
58686;BME280;44465;53.206;-6.106;2023-02-11T06:19:37;103369.56;;;20.09;53.78
58686;BME280;44465;53.206;-6.106;2023-02-11T06:22:03;103338.59;;;19.91;53.69
58686;BME280;44465;53.206;-6.106;2023-02-11T06:24:29;103394.47;;;20.18;53.28
58686;BME280;44465;53.206;-6.106;2023-02-11T06:26:54;103359.06;;;19.94;53.23
58686;BME280;44465;53.206;-6.106;2023-02-11T06:29:20;103398.91;;;20.19;53.42
58686;BME280;44465;53.206;-6.106;2023-02-11T06:31:45;103388.25;;;20.14;53.53
58686;BME280;44465;53.206;-6.106;2023-02-11T06:34:11;103353.72;;;19.91;53.13
58686;BME280;44465;53.206;-6.106;2023-02-11T06:36:40;103379.38;;;20.10;53.34
58686;BME280;44465;53.206;-6.106;2023-02-11T06:39:06;103376.75;;;20.07;53.50
58686;BME280;44465;53.206;-6.106;2023-02-11T06:41:32;103393.59;;;20.15;53.41
58686;BME280;44465;53.206;-6.106;2023-02-11T06:43:58;103391.81;;;20.16;53.65
58686;BME280;44465;53.206;-6.106;2023-02-11T06:46:24;103393.59;;;20.15;53.40
58686;BME280;44465;53.206;-6.106;2023-02-11T06:48:49;103342.19;;;19.82;53.33
58686;BME280;44465;53.206;-6.106;2023-02-11T06:51:15;103390.00;;;20.18;53.51
58686;BME280;44465;53.206;-6.106;2023-02-11T06:53:43;103368.72;;;20.07;53.58
58686;BME280;44465;53.206;-6.106;2023-02-11T06:56:11;103388.25;;;20.14;53.40
58686;BME280;44465;53.206;-6.106;2023-02-11T06:58:38;103387.41;;;20.10;53.35
58686;BME280;44465;53.206;-6.106;2023-02-11T07:01:06;103343.09;;;19.81;53.64
58686;BME280;44465;53.206;-6.106;2023-02-11T07:03:35;103400.81;;;20.07;53.57
58686;BME280;44465;53.206;-6.106;2023-02-11T07:06:02;103401.66;;;20.12;53.98
58686;BME280;44465;53.206;-6.106;2023-02-11T07:08:28;103394.53;;;20.11;53.39
58686;BME280;44465;53.206;-6.106;2023-02-11T07:10:54;103390.97;;;20.09;53.58
58686;BME280;44465;53.206;-6.106;2023-02-11T07:13:19;103348.41;;;19.83;53.39
58686;BME280;44465;53.206;-6.106;2023-02-11T07:15:45;103370.59;;;19.97;53.59
58686;BME280;44465;53.206;-6.106;2023-02-11T07:18:10;103395.41;;;20.13;53.55
58686;BME280;44465;53.206;-6.106;2023-02-11T07:20:36;103387.44;;;20.07;53.51
58686;BME280;44465;53.206;-6.106;2023-02-11T07:23:03;103400.72;;;20.15;53.60
58686;BME280;44465;53.206;-6.106;2023-02-11T07:25:29;103344.00;;;19.77;53.45
58686;BME280;44465;53.206;-6.106;2023-02-11T07:27:54;103366.22;;;19.89;53.67
58686;BME280;44465;53.206;-6.106;2023-02-11T07:30:20;103412.34;;;20.15;53.53
58686;BME280;44465;53.206;-6.106;2023-02-11T07:32:46;103406.13;;;20.10;53.44
58686;BME280;44465;53.206;-6.106;2023-02-11T07:35:12;103403.53;;;20.04;53.45
58686;BME280;44465;53.206;-6.106;2023-02-11T07:37:39;103414.09;;;20.15;53.64
58686;BME280;44465;53.206;-6.106;2023-02-11T07:40:06;103420.34;;;20.15;53.51
58686;BME280;44465;53.206;-6.106;2023-02-11T07:42:33;103398.19;;;20.01;53.59
58686;BME280;44465;53.206;-6.106;2023-02-11T07:44:59;103408.81;;;20.09;53.59
58686;BME280;44465;53.206;-6.106;2023-02-11T07:47:25;103416.88;;;20.07;53.78
58686;BME280;44465;53.206;-6.106;2023-02-11T07:49:50;103406.25;;;19.99;53.67
58686;BME280;44465;53.206;-6.106;2023-02-11T07:52:16;103423.06;;;20.09;53.64
58686;BME280;44465;53.206;-6.106;2023-02-11T07:54:41;103421.38;;;20.02;53.62
58686;BME280;44465;53.206;-6.106;2023-02-11T07:57:07;103429.31;;;20.08;53.77
58686;BME280;44465;53.206;-6.106;2023-02-11T07:59:32;103372.56;;;19.74;53.83
58686;BME280;44465;53.206;-6.106;2023-02-11T08:01:58;103374.34;;;19.75;53.56
58686;BME280;44465;53.206;-6.106;2023-02-11T08:04:24;103395.69;;;19.86;53.56
58686;BME280;44465;53.206;-6.106;2023-02-11T08:06:49;103366.38;;;19.70;53.51
58686;BME280;44465;53.206;-6.106;2023-02-11T08:09:17;103416.94;;;19.99;53.46
58686;BME280;44465;53.206;-6.106;2023-02-11T08:11:43;103389.41;;;19.85;53.44
58686;BME280;44465;53.206;-6.106;2023-02-11T08:14:08;103409.84;;;19.97;53.47
58686;BME280;44465;53.206;-6.106;2023-02-11T08:16:35;103388.50;;;19.88;53.42
58686;BME280;44465;53.206;-6.106;2023-02-11T08:19:04;103369.91;;;19.75;53.21
58686;BME280;44465;53.206;-6.106;2023-02-11T08:21:29;103403.69;;;19.87;53.44
58686;BME280;44465;53.206;-6.106;2023-02-11T08:23:55;103422.28;;;19.98;53.46
58686;BME280;44465;53.206;-6.106;2023-02-11T08:26:26;103384.19;;;19.71;53.18
58686;BME280;44465;53.206;-6.106;2023-02-11T08:28:54;103377.94;;;19.69;53.38
58686;BME280;44465;53.206;-6.106;2023-02-11T08:31:22;103421.47;;;19.91;53.52
58686;BME280;44465;53.206;-6.106;2023-02-11T08:33:48;103392.19;;;19.74;53.71
58686;BME280;44465;53.206;-6.106;2023-02-11T08:36:20;103448.94;;;20.09;53.65
58686;BME280;44465;53.206;-6.106;2023-02-11T08:38:46;103428.50;;;20.03;53.94
58686;BME280;44465;53.206;-6.106;2023-02-11T08:41:12;103460.50;;;20.15;53.82
58686;BME280;44465;53.206;-6.106;2023-02-11T08:43:39;103435.72;;;19.95;54.17
58686;BME280;44465;53.206;-6.106;2023-02-11T08:46:13;103394.84;;;19.74;54.12
58686;BME280;44465;53.206;-6.106;2023-02-11T08:48:39;103427.69;;;19.95;53.73
58686;BME280;44465;53.206;-6.106;2023-02-11T08:51:06;103394.84;;;19.74;53.93
58686;BME280;44465;53.206;-6.106;2023-02-11T08:53:34;103405.56;;;19.74;54.11
58686;BME280;44465;53.206;-6.106;2023-02-11T08:56:00;103417.97;;;19.81;53.75
58686;BME280;44465;53.206;-6.106;2023-02-11T08:58:25;103465.03;;;20.07;53.96
58686;BME280;44465;53.206;-6.106;2023-02-11T09:00:51;103469.41;;;20.14;53.68
58686;BME280;44465;53.206;-6.106;2023-02-11T09:03:16;103439.31;;;19.91;53.91
58686;BME280;44465;53.206;-6.106;2023-02-11T09:05:46;103439.28;;;19.94;53.83
58686;BME280;44465;53.206;-6.106;2023-02-11T09:08:13;103439.31;;;19.88;53.64
58686;BME280;44465;53.206;-6.106;2023-02-11T09:10:38;103486.38;;;20.12;53.98
58686;BME280;44465;53.206;-6.106;2023-02-11T09:13:05;103482.91;;;19.99;53.88
58686;BME280;44465;53.206;-6.106;2023-02-11T09:15:31;103496.25;;;20.05;53.86
58686;BME280;44465;53.206;-6.106;2023-02-11T09:17:57;103453.63;;;19.80;53.59
58686;BME280;44465;53.206;-6.106;2023-02-11T09:20:23;103434.94;;;19.73;53.93
58686;BME280;44465;53.206;-6.106;2023-02-11T09:22:51;103495.34;;;20.05;53.84
58686;BME280;44465;53.206;-6.106;2023-02-11T09:25:17;103495.31;;;20.08;53.73
58686;BME280;44465;53.206;-6.106;2023-02-11T09:27:42;103486.44;;;20.03;53.64
58686;BME280;44465;53.206;-6.106;2023-02-11T09:30:08;103458.94;;;19.85;53.68
58686;BME280;44465;53.206;-6.106;2023-02-11T09:32:34;103466.97;;;19.82;53.51
58686;BME280;44465;53.206;-6.106;2023-02-11T09:34:59;103459.88;;;19.81;53.64
58686;BME280;44465;53.206;-6.106;2023-02-11T09:37:25;103514.00;;;20.12;53.88
58686;BME280;44465;53.206;-6.106;2023-02-11T09:39:50;103473.22;;;19.86;53.68
58686;BME280;44465;53.206;-6.106;2023-02-11T09:45:29;103503.38;;;20.05;53.73
58686;BME280;44465;53.206;-6.106;2023-02-11T09:48:02;103450.13;;;19.72;53.76
58686;BME280;44465;53.206;-6.106;2023-02-11T09:50:35;103451.91;;;19.73;54.03
58686;BME280;44465;53.206;-6.106;2023-02-11T09:53:25;103519.38;;;20.09;53.59
58686;BME280;44465;53.206;-6.106;2023-02-11T09:55:54;103521.16;;;20.10;53.84
58686;BME280;44465;53.206;-6.106;2023-02-11T09:58:32;103514.09;;;20.03;53.42
58686;BME280;44465;53.206;-6.106;2023-02-11T10:04:06;103526.50;;;20.10;53.42
58686;BME280;44465;53.206;-6.106;2023-02-11T10:06:52;103468.84;;;19.72;53.54
58686;BME280;44465;53.206;-6.106;2023-02-11T10:22:54;103467.94;;;19.70;53.74
58686;BME280;44465;53.206;-6.106;2023-02-11T10:25:44;103529.22;;;20.09;53.65
58686;BME280;44465;53.206;-6.106;2023-02-11T10:28:32;103488.38;;;19.83;53.61
58686;BME280;44465;53.206;-6.106;2023-02-11T10:31:21;103534.59;;;20.07;53.78
58686;BME280;44465;53.206;-6.106;2023-02-11T10:33:55;103476.84;;;19.72;53.81
58686;BME280;44465;53.206;-6.106;2023-02-11T10:36:26;103499.91;;;19.92;53.71
58686;BME280;44465;53.206;-6.106;2023-02-11T10:38:52;103498.16;;;19.89;53.95
58686;BME280;44465;53.206;-6.106;2023-02-11T10:41:23;103465.28;;;19.70;53.39
58686;BME280;44465;53.206;-6.106;2023-02-11T10:43:50;103525.72;;;20.01;53.54
58686;BME280;44465;53.206;-6.106;2023-02-11T10:46:18;103520.34;;;19.99;53.52
58686;BME280;44465;53.206;-6.106;2023-02-11T10:48:48;103493.72;;;19.80;53.59
58686;BME280;44465;53.206;-6.106;2023-02-11T10:53:45;103547.00;;;20.11;53.69
58686;BME280;44465;53.206;-6.106;2023-02-11T10:56:25;103503.50;;;19.88;53.39
58686;BME280;44465;53.206;-6.106;2023-02-11T10:58:58;103515.97;;;19.92;53.52
58686;BME280;44465;53.206;-6.106;2023-02-11T11:04:05;103466.19;;;19.69;53.39
58686;BME280;44465;53.206;-6.106;2023-02-11T11:06:32;103470.63;;;19.73;53.46
58686;BME280;44465;53.206;-6.106;2023-02-11T11:08:59;103516.75;;;20.03;53.50
58686;BME280;44465;53.206;-6.106;2023-02-11T11:11:26;103496.34;;;19.90;53.21
58686;BME280;44465;53.206;-6.106;2023-02-11T11:16:27;103517.63;;;20.04;53.54
58686;BME280;44465;53.206;-6.106;2023-02-11T11:19:14;103512.31;;;19.99;53.58
58686;BME280;44465;53.206;-6.106;2023-02-11T11:21:48;103490.16;;;19.86;53.45
58686;BME280;44465;53.206;-6.106;2023-02-11T11:24:19;103528.31;;;20.08;53.59
58686;BME280;44465;53.206;-6.106;2023-02-11T11:26:54;103527.41;;;20.11;53.48
58686;BME280;44465;53.206;-6.106;2023-02-11T11:29:25;103507.00;;;19.97;53.44
58686;BME280;44465;53.206;-6.106;2023-02-11T11:31:59;103484.78;;;19.84;53.52
58686;BME280;44465;53.206;-6.106;2023-02-11T11:34:40;103527.44;;;20.05;53.45
58686;BME280;44465;53.206;-6.106;2023-02-11T11:37:12;103533.63;;;20.14;53.33
58686;BME280;44465;53.206;-6.106;2023-02-11T11:39:39;103499.91;;;19.92;53.52
58686;BME280;44465;53.206;-6.106;2023-02-11T11:42:23;103524.78;;;20.03;53.32
58686;BME280;44465;53.206;-6.106;2023-02-11T11:50:26;103529.16;;;20.13;53.63
58686;BME280;44465;53.206;-6.106;2023-02-11T11:55:55;103530.94;;;20.14;53.53
58686;BME280;44465;53.206;-6.106;2023-02-11T11:58:22;103501.56;;;20.07;53.41
58686;BME280;44465;53.206;-6.106;2023-02-11T12:12:59;103491.78;;;20.07;53.80
58686;BME280;44465;53.206;-6.106;2023-02-11T12:21:01;103503.28;;;20.15;53.31
58686;BME280;44465;53.206;-6.106;2023-02-11T12:23:55;103505.06;;;20.17;53.19
58686;BME280;44465;53.206;-6.106;2023-02-11T12:29:12;103503.28;;;20.15;53.20
58686;BME280;44465;53.206;-6.106;2023-02-11T12:32:09;103503.28;;;20.15;53.32
58686;BME280;44465;53.206;-6.106;2023-02-11T12:43:12;103470.44;;;19.99;53.11
58686;BME280;44465;53.206;-6.106;2023-02-11T12:58:43;103493.50;;;20.14;53.35
58686;BME280;44465;53.206;-6.106;2023-02-11T13:01:28;103456.19;;;19.94;53.24
58686;BME280;44465;53.206;-6.106;2023-02-11T13:04:18;103459.78;;;19.95;53.44
58686;BME280;44465;53.206;-6.106;2023-02-11T13:07:01;103441.16;;;19.86;53.28
58686;BME280;44465;53.206;-6.106;2023-02-11T13:09:34;103483.72;;;20.10;53.23
58686;BME280;44465;53.206;-6.106;2023-02-11T13:12:04;103497.06;;;20.13;53.29
58686;BME280;44465;53.206;-6.106;2023-02-11T13:14:51;103505.03;;;20.18;53.12
58686;BME280;44465;53.206;-6.106;2023-02-11T13:17:28;103430.47;;;19.76;53.23
58686;BME280;44465;53.206;-6.106;2023-02-11T13:20:02;103496.16;;;20.18;53.40
58686;BME280;44465;53.206;-6.106;2023-02-11T13:22:31;103497.88;;;20.19;52.98
58686;BME280;44465;53.206;-6.106;2023-02-11T13:25:05;103498.81;;;20.19;53.10
58686;BME280;44465;53.206;-6.106;2023-02-11T13:35:32;103489.03;;;20.17;53.11
58686;BME280;44465;53.206;-6.106;2023-02-11T13:37:59;103465.94;;;20.03;53.36
58686;BME280;44465;53.206;-6.106;2023-02-11T13:40:35;103500.56;;;20.19;52.95
58686;BME280;44465;53.206;-6.106;2023-02-11T13:43:04;103483.66;;;20.15;53.08
58686;BME280;44465;53.206;-6.106;2023-02-11T13:45:38;103487.19;;;20.19;53.03
58686;BME280;44465;53.206;-6.106;2023-02-11T13:50:47;103418.81;;;19.82;53.08
58686;BME280;44465;53.206;-6.106;2023-02-11T13:53:14;103472.00;;;20.21;53.02
58686;BME280;44465;53.206;-6.106;2023-02-11T13:55:45;103471.16;;;20.20;53.07
58686;BME280;44465;53.206;-6.106;2023-02-11T14:00:47;103409.03;;;19.87;53.24
58686;BME280;44465;53.206;-6.106;2023-02-11T14:03:26;103441.78;;;20.12;52.88
58686;BME280;44465;53.206;-6.106;2023-02-11T14:06:13;103453.28;;;20.21;53.20
58686;BME280;44465;53.206;-6.106;2023-02-11T14:14:24;103441.72;;;20.20;53.20
58686;BME280;44465;53.206;-6.106;2023-02-11T14:19:42;103442.59;;;20.21;53.12
58686;BME280;44465;53.206;-6.106;2023-02-11T14:27:21;103425.69;;;20.14;53.25
58686;BME280;44465;53.206;-6.106;2023-02-11T14:32:33;103444.38;;;20.22;52.98
58686;BME280;44465;53.206;-6.106;2023-02-11T14:35:15;103441.69;;;20.22;53.10
58686;BME280;44465;53.206;-6.106;2023-02-11T14:40:40;103402.63;;;20.04;53.05
58686;BME280;44465;53.206;-6.106;2023-02-11T14:43:15;103430.09;;;20.23;53.20
58686;BME280;44465;53.206;-6.106;2023-02-11T14:45:45;103398.19;;;20.01;53.15
58686;BME280;44465;53.206;-6.106;2023-02-11T14:48:19;103401.72;;;20.06;53.04
58686;BME280;44465;53.206;-6.106;2023-02-11T14:51:07;103359.13;;;19.81;53.13
58686;BME280;44465;53.206;-6.106;2023-02-11T14:53:34;103436.34;;;20.20;53.20
58686;BME280;44465;53.206;-6.106;2023-02-11T14:56:01;103407.94;;;20.07;53.00
58686;BME280;44465;53.206;-6.106;2023-02-11T14:58:28;103414.97;;;20.17;52.92
58686;BME280;44465;53.206;-6.106;2023-02-11T15:03:42;103418.63;;;20.10;53.25
58686;BME280;44465;53.206;-6.106;2023-02-11T15:06:17;103409.69;;;20.09;53.39
58686;BME280;44465;53.206;-6.106;2023-02-11T15:09:18;103421.25;;;20.14;53.13
58686;BME280;44465;53.206;-6.106;2023-02-11T15:11:46;103422.97;;;20.19;53.28
58686;BME280;44465;53.206;-6.106;2023-02-11T15:14:23;103431.88;;;20.21;53.14